createdAt,value
2022-09-17T00:01:08.553Z,94895.59
2022-09-17T00:03:35.980Z,94894.81
2022-09-17T00:06:08.698Z,94896.72
2022-09-17T00:08:37.428Z,94893.66
2022-09-17T00:11:12.550Z,94885.13
2022-09-17T00:13:39.451Z,94887.06
2022-09-17T00:16:06.281Z,94892.88
2022-09-17T00:18:33.121Z,94903.75
2022-09-17T00:20:59.684Z,94896.72
2022-09-17T00:23:26.187Z,94891.25
2022-09-17T00:25:52.721Z,94894.34
2022-09-17T00:28:19.223Z,94892.88
2022-09-17T00:30:46.153Z,94886.19
2022-09-17T00:33:15.110Z,94892.75
2022-09-17T00:35:42.037Z,94896.28
2022-09-17T00:38:09.501Z,94896.28
2022-09-17T00:40:36.575Z,94890.72
2022-09-17T00:43:04.764Z,94893.34
2022-09-17T00:45:31.560Z,94900.06
2022-09-17T00:48:00.746Z,94900.16
2022-09-17T00:50:34.910Z,94907.16
2022-09-17T00:53:07.200Z,94915.59
2022-09-17T00:55:38.746Z,94918.53
2022-09-17T00:58:08.218Z,94916.16
2022-09-17T01:00:34.879Z,94921.13
2022-09-17T01:03:01.434Z,94922.59
2022-09-17T01:05:32.322Z,94930.66
2022-09-17T01:08:21.340Z,94923.41
2022-09-17T01:11:10.983Z,94912.03
2022-09-17T01:13:43.337Z,94921.00
2022-09-17T01:16:20.058Z,94919.75
2022-09-17T01:19:08.442Z,94909.88
2022-09-17T01:22:13.449Z,94914.44
2022-09-17T01:25:03.186Z,94916.69
2022-09-17T01:27:58.314Z,94927.56
2022-09-17T01:30:52.721Z,94917.84
2022-09-17T01:33:51.932Z,94924.75
2022-09-17T01:37:07.995Z,94914.88
2022-09-17T01:39:50.028Z,94911.69
2022-09-17T01:42:37.785Z,94911.25
2022-09-17T01:45:13.555Z,94901.03
2022-09-17T01:47:47.839Z,94900.56
2022-09-17T01:50:26.018Z,94905.56
2022-09-17T01:52:55.603Z,94898.88
2022-09-17T01:55:27.095Z,94896.47
2022-09-17T01:58:04.271Z,94909.63
2022-09-17T02:00:31.243Z,94906.81
2022-09-17T02:03:05.564Z,94911.47
2022-09-17T02:05:41.922Z,94918.00
2022-09-17T02:08:17.034Z,94909.41
2022-09-17T02:10:48.331Z,94909.59
2022-09-17T02:13:22.748Z,94903.72
2022-09-17T02:15:56.397Z,94908.72
2022-09-17T02:18:28.348Z,94903.94
2022-09-17T02:21:11.342Z,94909.38
2022-09-17T02:23:47.736Z,94900.44
2022-09-17T02:26:20.552Z,94898.94
2022-09-17T02:29:07.067Z,94893.50
2022-09-17T02:31:33.731Z,94887.41
2022-09-17T02:34:02.986Z,94894.09
2022-09-17T02:36:30.556Z,94891.50
2022-09-17T02:39:02.394Z,94891.50
2022-09-17T02:41:37.409Z,94879.94
2022-09-17T02:44:36.482Z,94876.78
2022-09-17T02:47:12.267Z,94872.22
2022-09-17T02:50:00.062Z,94873.81
2022-09-17T02:53:03.738Z,94856.59
2022-09-17T02:55:30.141Z,94855.81
2022-09-17T02:58:16.537Z,94853.41
2022-09-17T03:00:44.967Z,94855.69
2022-09-17T03:03:29.480Z,94856.03
2022-09-17T03:05:56.199Z,94852.06
2022-09-17T03:08:39.244Z,94856.22
2022-09-17T03:11:06.799Z,94847.97
2022-09-17T03:13:33.279Z,94841.28
2022-09-17T03:15:59.933Z,94853.63
2022-09-17T03:18:26.408Z,94847.06
2022-09-17T03:20:52.930Z,94860.19
2022-09-17T03:23:19.448Z,94860.41
2022-09-17T03:25:46.829Z,94866.50
2022-09-17T03:28:13.338Z,94866.41
2022-09-17T03:30:39.779Z,94872.63
2022-09-17T03:33:06.321Z,94870.13
2022-09-17T03:35:32.834Z,94871.56
2022-09-17T03:37:59.348Z,94874.63
2022-09-17T03:40:26.023Z,94878.50
2022-09-17T03:42:52.618Z,94871.34
2022-09-17T03:45:19.085Z,94878.69
2022-09-17T03:47:45.659Z,94883.66
2022-09-17T03:50:12.191Z,94883.22
2022-09-17T03:52:38.654Z,94885.47
2022-09-17T03:55:05.728Z,94878.00
2022-09-17T03:57:32.270Z,94868.47
2022-09-17T03:59:58.920Z,94876.16
2022-09-17T04:02:25.571Z,94874.13
2022-09-17T04:04:52.149Z,94873.31
2022-09-17T04:07:18.606Z,94867.75
2022-09-17T04:09:45.099Z,94870.47
2022-09-17T04:12:11.644Z,94859.16
2022-09-17T04:14:38.232Z,94872.25
2022-09-17T04:17:04.811Z,94876.88
2022-09-17T04:19:31.296Z,94868.75
2022-09-17T04:21:57.977Z,94882.00
2022-09-17T04:24:27.154Z,94885.03
2022-09-17T04:26:53.783Z,94892.41
2022-09-17T04:29:20.225Z,94903.28
2022-09-17T04:31:46.813Z,94913.00
2022-09-17T04:34:13.371Z,94917.63
2022-09-17T04:36:39.923Z,94913.00
2022-09-17T04:39:06.546Z,94915.03
2022-09-17T04:41:33.042Z,94911.22
2022-09-17T04:43:59.738Z,94920.97
2022-09-17T04:46:26.365Z,94927.19
2022-09-17T04:48:52.823Z,94938.81
2022-09-17T04:51:19.438Z,94950.50
2022-09-17T04:53:45.944Z,94945.75
2022-09-17T04:56:12.407Z,94935.66
2022-09-17T04:58:38.924Z,94942.22
2022-09-17T05:01:05.801Z,94946.53
2022-09-17T05:03:32.352Z,94934.38
2022-09-17T05:05:58.836Z,94939.81
2022-09-17T05:08:25.318Z,94937.44
2022-09-17T05:10:51.887Z,94940.16
2022-09-17T05:13:18.415Z,94960.31
2022-09-17T05:15:45.085Z,94960.31
2022-09-17T05:18:14.466Z,94957.06
2022-09-17T05:20:40.952Z,94955.50
2022-09-17T05:23:07.523Z,94965.22
2022-09-17T05:25:34.201Z,94971.00
2022-09-17T05:28:01.147Z,94972.59
2022-09-17T05:30:27.697Z,94976.41
2022-09-17T05:33:02.038Z,94979.50
2022-09-17T05:35:29.758Z,94986.50
2022-09-17T05:38:00.675Z,95009.84
2022-09-17T05:40:28.239Z,95016.53
2022-09-17T05:42:59.060Z,95025.84
2022-09-17T05:45:26.060Z,95017.34
2022-09-17T05:48:00.477Z,95015.44
2022-09-17T05:50:28.886Z,95020.97
2022-09-17T05:52:55.907Z,95021.47
2022-09-17T05:55:23.771Z,95016.50
2022-09-17T05:57:51.028Z,95021.59
2022-09-17T06:00:18.238Z,95016.63
2022-09-17T06:02:44.900Z,95020.59
2022-09-17T06:05:11.615Z,95019.78
2022-09-17T06:07:38.997Z,95015.63
2022-09-17T06:10:06.700Z,95019.13
2022-09-17T06:12:33.172Z,95022.66
2022-09-17T06:14:59.680Z,95022.19
2022-09-17T06:17:26.132Z,95013.25
2022-09-17T06:19:52.644Z,95017.44
2022-09-17T06:22:19.852Z,95021.94
2022-09-17T06:24:46.587Z,95022.59
2022-09-17T06:27:13.094Z,95024.97
2022-09-17T06:29:39.998Z,95033.91
2022-09-17T06:32:08.731Z,95024.84
2022-09-17T06:34:35.181Z,95028.03
2022-09-17T06:37:01.659Z,95020.97
2022-09-17T06:39:28.315Z,95014.09
2022-09-17T06:41:54.819Z,95027.81
2022-09-17T06:44:21.262Z,95029.09
2022-09-17T06:46:50.103Z,95022.19
2022-09-17T06:49:17.398Z,95019.63
2022-09-17T06:51:44.567Z,95020.53
2022-09-17T06:54:11.444Z,95009.34
2022-09-17T06:56:37.924Z,95016.16
2022-09-17T06:59:04.736Z,95020.94
2022-09-17T07:01:31.300Z,95021.53
2022-09-17T07:03:58.213Z,95013.06
2022-09-17T07:06:24.737Z,95003.91
2022-09-17T07:08:51.208Z,94987.94
2022-09-17T07:11:17.754Z,94992.69
2022-09-17T07:13:44.276Z,95006.25
2022-09-17T07:16:10.895Z,95018.75
2022-09-17T07:18:37.467Z,95021.13
2022-09-17T07:21:05.837Z,95025.44
2022-09-17T07:23:34.982Z,95020.13
2022-09-17T07:26:05.587Z,95024.44
2022-09-17T07:28:32.303Z,95031.00
2022-09-17T07:31:02.353Z,95025.25
2022-09-17T07:33:28.878Z,95022.84
2022-09-17T07:35:58.195Z,95020.91
2022-09-17T07:38:26.091Z,95020.13
2022-09-17T07:41:04.559Z,95024.31
2022-09-17T07:43:34.124Z,95014.91
2022-09-17T07:46:03.143Z,95023.72
2022-09-17T07:48:30.499Z,95020.06
2022-09-17T07:50:57.547Z,95023.13
2022-09-17T07:53:24.742Z,95022.34
2022-09-17T07:55:59.305Z,95026.16
2022-09-17T07:58:43.807Z,95027.88
2022-09-17T08:01:12.429Z,95018.75
2022-09-17T08:03:40.039Z,95038.38
2022-09-17T08:06:09.080Z,95042.81
2022-09-17T08:08:36.946Z,95050.44
2022-09-17T08:11:08.631Z,95030.72
2022-09-17T08:13:35.194Z,95028.59
2022-09-17T08:16:04.890Z,95033.16
2022-09-17T08:18:31.944Z,95044.63
2022-09-17T08:21:00.044Z,95040.91
2022-09-17T08:23:27.116Z,95036.13
2022-09-17T08:25:55.456Z,95042.53
2022-09-17T08:28:25.945Z,95039.59
2022-09-17T08:30:53.537Z,95036.00
2022-09-17T08:33:21.150Z,95031.59
2022-09-17T08:35:55.352Z,95045.22
2022-09-17T08:38:22.063Z,95044.00
2022-09-17T08:41:07.260Z,95032.66
2022-09-17T08:43:41.135Z,95042.41
2022-09-17T08:46:11.022Z,95034.94
2022-09-17T08:48:43.275Z,95039.47
2022-09-17T08:51:22.784Z,95042.78
2022-09-17T08:54:02.640Z,95050.03
2022-09-17T08:56:33.952Z,95051.97
2022-09-17T08:59:11.433Z,95052.31
2022-09-17T09:01:45.559Z,95061.25
2022-09-17T09:04:23.968Z,95058.88
2022-09-17T09:06:55.586Z,95060.00
2022-09-17T09:09:28.403Z,95054.13
2022-09-17T09:12:03.364Z,95057.50
2022-09-17T09:14:44.616Z,95062.06
2022-09-17T09:17:11.421Z,95061.59
2022-09-17T09:19:43.893Z,95055.59
2022-09-17T09:22:33.915Z,95062.84
2022-09-17T09:25:20.444Z,95060.38
2022-09-17T09:28:08.447Z,95053.88
2022-09-17T09:30:55.341Z,95064.78
2022-09-17T09:33:30.104Z,95055.38
2022-09-17T09:35:56.774Z,95066.94
2022-09-17T09:38:32.651Z,95077.59
2022-09-17T09:41:19.380Z,95078.25
2022-09-17T09:44:12.652Z,95073.50
2022-09-17T09:46:52.170Z,95081.22
2022-09-17T09:49:55.795Z,95076.88
2022-09-17T09:52:31.303Z,95079.50
2022-09-17T09:55:17.315Z,95081.75
2022-09-17T09:57:49.660Z,95083.66
2022-09-17T10:00:31.555Z,95087.72
2022-09-17T10:03:10.354Z,95095.44
2022-09-17T10:05:36.919Z,95092.81
2022-09-17T10:08:14.383Z,95086.31
2022-09-17T10:11:20.194Z,95083.22
2022-09-17T10:13:46.685Z,95089.00
2022-09-17T10:16:16.333Z,95085.53
2022-09-17T10:18:43.013Z,95101.09
2022-09-17T10:21:38.800Z,95100.16
2022-09-17T10:24:21.332Z,95103.19
2022-09-17T10:26:48.011Z,95096.19
2022-09-17T10:29:18.343Z,95101.41
2022-09-17T10:31:52.820Z,95094.72
2022-09-17T10:34:27.888Z,95101.84
2022-09-17T10:36:55.283Z,95102.50
2022-09-17T10:39:35.311Z,95097.91
2022-09-17T10:42:03.256Z,95098.91
2022-09-17T10:44:32.063Z,95090.63
2022-09-17T10:47:10.949Z,95091.59
2022-09-17T10:49:41.360Z,95085.38
2022-09-17T10:52:18.167Z,95092.25
2022-09-17T10:55:01.740Z,95084.44
2022-09-17T10:57:51.289Z,95089.88
2022-09-17T11:00:20.576Z,95084.59
2022-09-17T11:03:34.921Z,95090.63
2022-09-17T11:06:36.735Z,95091.22
2022-09-17T11:09:29.666Z,95094.53
2022-09-17T11:12:02.296Z,95091.47
2022-09-17T11:14:46.719Z,95097.56
2022-09-17T11:17:50.268Z,95089.91
2022-09-17T11:20:37.186Z,95096.56
2022-09-17T11:23:41.108Z,95098.06
2022-09-17T11:26:33.612Z,95086.03
2022-09-17T11:29:27.263Z,95080.59
2022-09-17T11:32:26.685Z,95076.63
2022-09-17T11:35:09.536Z,95075.38
2022-09-17T11:37:42.008Z,95067.53
2022-09-17T11:40:36.877Z,95064.38
2022-09-17T11:43:27.724Z,95064.69
2022-09-17T11:46:02.420Z,95059.84
2022-09-17T11:48:52.522Z,95075.38
2022-09-17T11:51:32.037Z,95089.41
2022-09-17T11:54:17.534Z,95098.22
2022-09-17T11:56:47.766Z,95100.56
2022-09-17T11:59:26.266Z,95097.97
2022-09-17T12:01:54.720Z,95087.69
2022-09-17T12:04:46.038Z,95090.19
2022-09-17T12:07:15.347Z,95081.91
2022-09-17T12:09:43.796Z,95089.13
2022-09-17T12:12:47.650Z,95086.25
2022-09-17T12:15:26.834Z,95081.94
2022-09-17T12:18:31.027Z,95080.31
2022-09-17T12:21:00.441Z,95072.13
2022-09-17T12:23:36.377Z,95064.75
2022-09-17T12:26:14.131Z,95054.09
2022-09-17T12:29:15.994Z,95058.13
2022-09-17T12:31:46.426Z,95059.47
2022-09-17T12:34:48.008Z,95050.09
2022-09-17T12:37:21.060Z,95036.56
2022-09-17T12:40:29.153Z,95045.28
2022-09-17T12:43:20.003Z,95046.56
2022-09-17T12:46:25.390Z,95046.41
2022-09-17T12:49:18.308Z,95037.47
2022-09-17T12:51:55.559Z,95043.34
2022-09-17T12:54:45.464Z,95045.06
2022-09-17T12:57:30.953Z,95035.47
2022-09-17T13:00:08.156Z,95044.19
2022-09-17T13:02:45.280Z,95040.63
2022-09-17T13:05:35.192Z,95047.78
2022-09-17T13:08:26.825Z,95031.34
2022-09-17T13:11:00.404Z,95028.63
2022-09-17T13:13:52.832Z,95025.84
2022-09-17T13:16:43.037Z,95036.28
2022-09-17T13:19:36.250Z,95032.78
2022-09-17T13:22:20.531Z,95028.94
2022-09-17T13:25:00.998Z,95022.56
2022-09-17T13:27:27.974Z,95030.06
2022-09-17T13:29:54.406Z,95023.34
2022-09-17T13:32:32.913Z,95022.22
2022-09-17T13:35:22.305Z,95021.75
2022-09-17T13:37:48.806Z,95027.22
2022-09-17T13:40:25.909Z,95037.66
2022-09-17T13:42:54.434Z,95026.66
2022-09-17T13:45:23.208Z,95023.16
2022-09-17T13:47:52.194Z,95015.31
2022-09-17T13:50:30.505Z,95018.59
2022-09-17T13:52:58.889Z,95017.91
2022-09-17T13:55:36.141Z,95021.06
2022-09-17T13:58:12.264Z,95022.00
2022-09-17T14:00:48.107Z,95027.69
2022-09-17T14:03:30.055Z,95028.47
2022-09-17T14:06:05.776Z,95022.34
2022-09-17T14:08:44.354Z,95033.22
2022-09-17T14:11:22.878Z,95026.53
2022-09-17T14:14:04.317Z,95040.16
2022-09-17T14:16:30.778Z,95038.56
2022-09-17T14:19:01.492Z,95033.22
2022-09-17T14:21:34.843Z,95028.56
2022-09-17T14:24:04.403Z,95023.91
2022-09-17T14:27:14.786Z,95030.84
2022-09-17T14:30:01.280Z,95025.50
2022-09-17T14:32:30.076Z,95019.25
2022-09-17T14:34:57.005Z,95021.75
2022-09-17T14:37:24.231Z,95022.75
2022-09-17T14:39:52.434Z,95024.69
2022-09-17T14:42:27.539Z,95019.78
2022-09-17T14:45:26.795Z,95026.50
2022-09-17T14:48:19.276Z,95025.56
2022-09-17T14:50:45.909Z,95019.28
2022-09-17T14:53:17.679Z,95022.56
2022-09-17T14:55:51.295Z,95031.28
2022-09-17T14:58:37.533Z,95018.00
2022-09-17T15:01:04.127Z,95025.13
2022-09-17T15:03:30.614Z,95024.69
2022-09-17T15:05:57.274Z,95029.03
2022-09-17T15:08:28.087Z,95037.56
2022-09-17T15:10:57.891Z,95037.91
2022-09-17T15:13:50.761Z,95034.25
2022-09-17T15:16:23.542Z,95037.66
2022-09-17T15:18:55.892Z,95039.88
2022-09-17T15:21:36.411Z,95035.44
2022-09-17T15:24:43.449Z,95048.06
2022-09-17T15:27:41.445Z,95057.59
2022-09-17T15:30:15.730Z,95060.25
2022-09-17T15:32:48.557Z,95072.59
2022-09-17T15:35:15.401Z,95077.63
2022-09-17T15:38:18.443Z,95081.69
2022-09-17T15:40:40.590Z,95082.28
2022-09-17T15:43:30.372Z,95083.31
2022-09-17T15:45:57.877Z,95072.97
2022-09-17T15:48:27.326Z,95087.97
2022-09-17T15:50:59.827Z,95095.09
2022-09-17T15:53:33.406Z,95087.50
2022-09-17T15:56:16.425Z,95102.91
2022-09-17T15:58:42.951Z,95094.84
2022-09-17T16:01:14.915Z,95109.00
2022-09-17T16:03:41.459Z,95100.28
2022-09-17T16:06:20.061Z,95105.44
2022-09-17T16:08:52.013Z,95108.03
2022-09-17T16:11:31.797Z,95100.41
2022-09-17T16:14:00.970Z,95104.94
2022-09-17T16:16:35.399Z,95111.38
2022-09-17T16:19:02.339Z,95106.16
2022-09-17T16:21:29.041Z,95114.97
2022-09-17T16:23:55.604Z,95111.03
2022-09-17T16:26:27.961Z,95113.94
2022-09-17T16:28:59.805Z,95114.59
2022-09-17T16:31:26.331Z,95110.63
2022-09-17T16:33:52.941Z,95111.97
2022-09-17T16:36:19.455Z,95126.69
2022-09-17T16:38:45.921Z,95116.47
2022-09-17T16:41:12.467Z,95117.94
2022-09-17T16:43:39.136Z,95127.22
2022-09-17T16:46:10.677Z,95128.53
2022-09-17T16:48:38.236Z,95130.16
2022-09-17T16:51:09.104Z,95131.28
2022-09-17T16:53:35.683Z,95130.03
2022-09-17T16:56:06.516Z,95128.53
2022-09-17T16:58:33.025Z,95126.66
2022-09-17T17:00:59.584Z,95130.03
2022-09-17T17:03:26.220Z,95134.66
2022-09-17T17:05:52.721Z,95128.75
2022-09-17T17:08:19.264Z,95147.34
2022-09-17T17:10:49.709Z,95140.50
2022-09-17T17:13:16.527Z,95148.84
2022-09-17T17:15:43.056Z,95152.88
2022-09-17T17:18:09.559Z,95147.63
2022-09-17T17:20:36.401Z,95154.72
2022-09-17T17:23:02.931Z,95163.72
2022-09-17T17:25:30.671Z,95159.44
2022-09-17T17:27:57.240Z,95167.31
2022-09-17T17:30:23.900Z,95165.44
2022-09-17T17:32:52.363Z,95179.53
2022-09-17T17:35:20.275Z,95175.38
2022-09-17T17:37:46.793Z,95172.69
2022-09-17T17:40:13.344Z,95175.13
2022-09-17T17:42:39.852Z,95176.75
2022-09-17T17:45:07.180Z,95178.03
2022-09-17T17:47:34.325Z,95190.50
2022-09-17T17:50:00.857Z,95197.69
2022-09-17T17:52:27.434Z,95192.44
2022-09-17T17:54:53.971Z,95194.53
2022-09-17T17:57:20.490Z,95189.88
2022-09-17T17:59:46.975Z,95196.75
2022-09-17T18:02:13.574Z,95202.50
2022-09-17T18:04:40.185Z,95198.34
2022-09-17T18:07:06.697Z,95206.97
2022-09-17T18:09:33.882Z,95220.53
2022-09-17T18:12:00.365Z,95225.97
2022-09-17T18:14:26.909Z,95227.09
2022-09-17T18:16:53.388Z,95229.81
2022-09-17T18:19:19.938Z,95238.28
2022-09-17T18:21:46.427Z,95228.66
2022-09-17T18:24:12.932Z,95239.22
2022-09-17T18:26:39.533Z,95241.91
2022-09-17T18:29:08.154Z,95244.63
2022-09-17T18:31:35.661Z,95243.84
2022-09-17T18:34:09.667Z,95243.53
2022-09-17T18:36:37.270Z,95246.72
2022-09-17T18:39:33.177Z,95245.59
2022-09-17T18:41:52.569Z,95255.00
2022-09-17T18:44:19.166Z,95257.56
2022-09-17T18:46:45.722Z,95267.31
2022-09-17T18:49:12.302Z,95265.38
2022-09-17T18:51:38.830Z,95271.13
2022-09-17T18:54:05.385Z,95265.25
2022-09-17T18:56:32.341Z,95268.28
2022-09-17T18:59:03.272Z,95262.38
2022-09-17T19:01:32.530Z,95275.13
2022-09-17T19:03:59.774Z,95265.41
2022-09-17T19:06:27.761Z,95264.13
2022-09-17T19:08:58.935Z,95254.22
2022-09-17T19:11:25.439Z,95254.53
2022-09-17T19:13:51.921Z,95260.75
2022-09-17T19:16:18.513Z,95267.63
2022-09-17T19:18:45.109Z,95266.81
2022-09-17T19:21:19.807Z,95265.25
2022-09-17T19:23:48.663Z,95263.63
2022-09-17T19:26:17.683Z,95262.38
2022-09-17T19:28:44.729Z,95260.78
2022-09-17T19:31:13.842Z,95264.28
2022-09-17T19:33:40.645Z,95266.97
2022-09-17T19:36:10.523Z,95258.84
2022-09-17T19:38:37.958Z,95255.03
2022-09-17T19:41:07.112Z,95247.84
2022-09-17T19:43:33.710Z,95238.59
2022-09-17T19:46:06.011Z,95242.09
2022-09-17T19:48:33.789Z,95234.28
2022-09-17T19:51:00.249Z,95238.09
2022-09-17T19:53:26.735Z,95235.88
2022-09-17T19:55:53.468Z,95235.56
2022-09-17T19:58:20.409Z,95230.13
2022-09-17T20:00:47.090Z,95229.63
2022-09-17T20:03:13.647Z,95230.78
2022-09-17T20:05:40.193Z,95226.94
2022-09-17T20:08:06.737Z,95232.34
2022-09-17T20:10:36.295Z,95226.13
2022-09-17T20:13:03.429Z,95224.22
2022-09-17T20:15:29.990Z,95219.91
2022-09-17T20:17:56.586Z,95217.69
2022-09-17T20:20:23.093Z,95225.81
2022-09-17T20:22:51.557Z,95222.63
2022-09-17T20:25:18.059Z,95228.84
2022-09-17T20:27:44.577Z,95219.91
2022-09-17T20:30:11.384Z,95222.13
2022-09-17T20:32:37.852Z,95211.28
2022-09-17T20:35:04.487Z,95223.75
2022-09-17T20:38:12.308Z,95237.00
2022-09-17T20:40:17.605Z,95242.09
2022-09-17T20:42:44.122Z,95250.22
2022-09-17T20:45:10.726Z,95247.66
2022-09-17T20:47:37.195Z,95247.81
2022-09-17T20:50:03.879Z,95241.59
2022-09-17T20:52:30.336Z,95237.13
2022-09-17T20:54:56.835Z,95257.59
2022-09-17T20:57:23.465Z,95248.94
2022-09-17T20:59:50.007Z,95246.72
2022-09-17T21:02:16.862Z,95246.56
2022-09-17T21:04:43.394Z,95245.44
2022-09-17T21:07:09.840Z,95253.09
2022-09-17T21:09:36.445Z,95250.53
2022-09-17T21:12:03.009Z,95250.38
2022-09-17T21:14:29.474Z,95249.09
2022-09-17T21:16:55.959Z,95254.53
2022-09-17T21:19:22.472Z,95254.03
2022-09-17T21:21:48.943Z,95257.88
2022-09-17T21:24:15.413Z,95253.84
2022-09-17T21:26:41.939Z,95261.53
2022-09-17T21:29:08.404Z,95267.25
2022-09-17T21:31:36.318Z,95275.41
2022-09-17T21:34:05.346Z,95271.06
2022-09-17T21:36:35.797Z,95281.13
2022-09-17T21:39:05.602Z,95272.22
2022-09-17T21:41:32.650Z,95272.53
2022-09-17T21:43:59.522Z,95278.25
2022-09-17T21:46:28.742Z,95268.34
2022-09-17T21:48:57.841Z,95272.50
2022-09-17T21:51:27.317Z,95260.19
2022-09-17T21:53:55.585Z,95260.34
2022-09-17T21:56:22.732Z,95266.38
2022-09-17T21:58:58.333Z,95261.44
2022-09-17T22:01:28.247Z,95254.25
2022-09-17T22:03:55.651Z,95264.56
2022-09-17T22:06:27.348Z,95268.38
2022-09-17T22:08:54.403Z,95260.72
2022-09-17T22:11:26.195Z,95269.28
2022-09-17T22:14:09.307Z,95269.25
2022-09-17T22:16:38.772Z,95279.91
2022-09-17T22:19:06.492Z,95282.09
2022-09-17T22:21:36.858Z,95278.56
2022-09-17T22:24:04.760Z,95272.97
2022-09-17T22:26:34.084Z,95282.84
2022-09-17T22:29:06.368Z,95279.75
2022-09-17T22:31:33.166Z,95269.22
2022-09-17T22:33:59.827Z,95277.50
2022-09-17T22:36:28.458Z,95278.28
2022-09-17T22:38:57.452Z,95283.03
2022-09-17T22:41:31.936Z,95287.66
2022-09-17T22:44:04.183Z,95285.88
2022-09-17T22:46:40.758Z,95272.44
2022-09-17T22:49:09.556Z,95280.56
2022-09-17T22:51:36.700Z,95276.59
2022-09-17T22:54:03.500Z,95274.97
2022-09-17T22:56:30.378Z,95278.00
2022-09-17T22:58:58.396Z,95283.72
2022-09-17T23:01:31.051Z,95278.13
2022-09-17T23:03:59.099Z,95290.03
2022-09-17T23:06:28.828Z,95280.44
2022-09-17T23:08:56.142Z,95284.28
2022-09-17T23:11:30.021Z,95284.88
2022-09-17T23:13:59.757Z,95290.13
2022-09-17T23:16:26.322Z,95296.13
2022-09-17T23:18:53.065Z,95294.84
2022-09-17T23:21:20.293Z,95298.94
2022-09-17T23:23:49.635Z,95303.38
2022-09-17T23:26:25.474Z,95302.38
2022-09-17T23:28:52.380Z,95307.28
2022-09-17T23:31:25.817Z,95306.50
2022-09-17T23:33:53.499Z,95301.59
2022-09-17T23:36:31.747Z,95309.22
2022-09-17T23:38:58.995Z,95310.78
2022-09-17T23:41:40.041Z,95320.31
2022-09-17T23:44:13.748Z,95316.81
2022-09-17T23:46:41.730Z,95314.63
2022-09-17T23:49:11.097Z,95318.91
2022-09-17T23:51:37.591Z,95324.00
2022-09-17T23:54:04.622Z,95318.28
2022-09-17T23:56:31.155Z,95327.53
2022-09-17T23:59:00.262Z,95325.63
